Time;durP1;ratioP1;P1;durP2;ratioP2;P2;SDS_P1;SDS_P2;PMS_P1;PMS_P2;Temp;Humidity;BMP_temperature;BMP_pressure;BME280_temperature;BME280_humidity;BME280_pressure;Samples;Min_cycle;Max_cycle;Signal;HPM_P1;HPM_P2
2022/06/28 00:00:16;;;;;;;13.50;1.52;;;;;;;14.03;90.16;101962.03;5010345;28;20041;-34
2022/06/28 00:02:42;;;;;;;11.88;2.17;;;;;;;14.01;90.06;101955.09;5010849;28;20100;-35
2022/06/28 00:05:08;;;;;;;15.52;2.05;;;;;;;14.00;90.08;101961.53;5010772;28;20116;-34
2022/06/28 00:07:33;;;;;;;12.73;1.83;;;;;;;13.98;90.02;101960.84;5010303;28;20056;-35
2022/06/28 00:09:59;;;;;;;26.42;1.90;;;;;;;13.96;90.19;101957.50;5009134;28;20038;-35
2022/06/28 00:12:25;;;;;;;20.38;3.17;;;;;;;13.96;89.82;101957.50;5010315;28;20597;-34
2022/06/28 00:17:34;;;;;;;9.95;1.30;;;;;;;13.93;89.23;101956.00;5010701;28;20076;-34
2022/06/28 00:19:59;;;;;;;11.77;1.70;;;;;;;13.94;88.99;101957.66;5009841;28;20069;-35
2022/06/28 00:22:25;;;;;;;6.72;1.00;;;;;;;13.94;88.98;101954.13;5010560;28;20112;-35
2022/06/28 00:24:50;;;;;;;13.40;2.03;;;;;;;13.92;88.88;101954.28;5010992;28;20080;-34
2022/06/28 00:27:17;;;;;;;10.75;1.10;;;;;;;13.88;88.80;101950.25;5010236;28;20072;-34
2022/06/28 00:29:43;;;;;;;13.07;1.98;;;;;;;13.88;88.50;101950.25;5010327;28;20037;-35
2022/06/28 00:32:08;;;;;;;12.15;2.15;;;;;;;13.92;87.83;101950.75;5010333;28;20552;-35
2022/06/28 00:34:34;;;;;;;10.00;1.10;;;;;;;13.92;87.20;101950.75;5009970;28;20489;-34
2022/06/28 00:36:59;;;;;;;13.18;1.30;;;;;;;13.94;87.17;101948.72;5010443;28;20061;-34
2022/06/28 00:39:24;;;;;;;12.90;1.77;;;;;;;13.95;86.40;101950.38;5010475;28;20088;-33
2022/06/28 00:41:50;;;;;;;13.15;1.40;;;;;;;13.95;86.45;101953.09;5010016;28;20504;-34
2022/06/28 00:44:15;;;;;;;15.13;2.35;;;;;;;13.95;86.41;101953.09;5010586;28;20080;-34
2022/06/28 00:46:41;;;;;;;12.77;1.60;;;;;;;13.95;86.11;101951.22;5009854;28;20490;-33
2022/06/28 00:49:08;;;;;;;12.57;1.88;;;;;;;13.96;85.66;101960.22;5010762;28;20034;-34
2022/06/28 00:51:34;;;;;;;15.52;1.58;;;;;;;13.98;85.22;101955.44;5010435;28;20030;-34
2022/06/28 00:54:00;;;;;;;15.68;1.85;;;;;;;14.04;85.07;101960.16;5010530;28;20481;-34
2022/06/28 00:56:25;;;;;;;13.82;1.70;;;;;;;14.05;84.71;101956.44;5010099;28;20409;-33
2022/06/28 00:58:52;;;;;;;13.20;1.45;;;;;;;14.07;84.79;101967.94;5010370;28;20041;-35
2022/06/28 01:01:19;;;;;;;18.58;1.70;;;;;;;14.05;84.65;101962.66;5008977;28;20432;-35
2022/06/28 01:03:45;;;;;;;14.73;1.60;;;;;;;14.06;84.79;101963.53;5010772;28;20026;-34
2022/06/28 01:06:11;;;;;;;8.48;1.33;;;;;;;14.03;84.90;101967.44;5009039;28;20046;-33
2022/06/28 01:08:37;;;;;;;12.10;1.40;;;;;;;13.99;85.07;101957.97;5009604;28;20068;-34
2022/06/28 01:11:18;;;;;;;9.82;1.65;;;;;;;13.95;85.30;101963.91;5025211;28;20477;-35
2022/06/28 01:13:51;;;;;;;12.00;1.95;;;;;;;13.93;85.48;101968.66;5011394;28;20041;-34
2022/06/28 01:16:17;;;;;;;11.93;1.65;;;;;;;13.88;85.82;101968.38;5013237;28;20034;-35
2022/06/28 01:18:43;;;;;;;15.02;1.58;;;;;;;13.85;85.99;101964.16;5012776;28;20600;-34
2022/06/28 01:21:09;;;;;;;14.63;1.60;;;;;;;13.84;86.05;101965.16;5013530;28;20022;-35
2022/06/28 01:23:34;;;;;;;14.23;1.40;;;;;;;13.77;86.46;101959.63;5012276;28;20048;-33
2022/06/28 01:25:59;;;;;;;10.95;1.30;;;;;;;13.76;86.98;101960.63;5013138;28;20064;-36
2022/06/28 01:28:25;;;;;;;12.63;1.50;;;;;;;13.74;87.01;101959.94;5013017;28;20030;-34
2022/06/28 01:30:50;;;;;;;11.68;2.03;;;;;;;13.73;87.03;101969.09;5012671;28;20025;-34
2022/06/28 01:33:16;;;;;;;16.70;1.65;;;;;;;13.70;87.42;101963.19;5028540;28;20056;-34
2022/06/28 01:35:41;;;;;;;16.50;1.80;;;;;;;13.67;87.53;101969.81;5028343;28;20030;-34
2022/06/28 01:38:08;;;;;;;16.38;1.92;;;;;;;13.64;88.07;101970.16;5013661;28;20531;-34
2022/06/28 01:40:33;;;;;;;15.82;1.80;;;;;;;13.60;88.43;101975.06;5013061;28;20405;-34
2022/06/28 01:42:59;;;;;;;11.63;1.73;;;;;;;13.59;88.62;101977.94;5013027;28;20057;-36
2022/06/28 01:45:25;;;;;;;13.25;1.90;;;;;;;13.60;88.30;101975.06;5012909;28;20033;-36
2022/06/28 01:47:51;;;;;;;10.63;1.63;;;;;;;13.60;88.31;101974.22;5012843;28;20077;-34
2022/06/28 01:50:16;;;;;;;10.32;1.98;;;;;;;13.59;88.34;101976.09;5009900;28;20551;-34
2022/06/28 01:52:43;;;;;;;15.48;1.48;;;;;;;13.59;88.09;101977.94;5012539;28;20149;-34
2022/06/28 01:55:09;;;;;;;5.93;1.10;;;;;;;13.58;88.00;101981.66;5012735;28;20036;-34
2022/06/28 01:57:34;;;;;;;11.13;1.40;;;;;;;13.57;87.69;101988.94;5028001;28;20037;-35
2022/06/28 01:59:59;;;;;;;8.13;1.63;;;;;;;13.57;87.68;101990.78;5012952;28;20485;-34
2022/06/28 02:02:25;;;;;;;26.13;1.80;;;;;;;13.56;87.56;101980.97;5011483;28;20092;-33
2022/06/28 02:04:50;;;;;;;10.38;1.60;;;;;;;13.54;87.61;101985.75;5013035;28;20038;-34
2022/06/28 02:07:16;;;;;;;9.60;1.65;;;;;;;13.54;87.47;101991.16;5012494;28;20045;-34
2022/06/28 02:09:42;;;;;;;13.10;1.77;;;;;;;13.49;87.66;101985.41;5012886;28;20366;-36
2022/06/28 02:12:07;;;;;;;11.02;1.58;;;;;;;13.47;87.86;101985.56;5012608;28;20034;-38
2022/06/28 02:14:33;;;;;;;20.60;2.03;;;;;;;13.45;88.01;101992.16;5004213;28;20029;-36
2022/06/28 02:16:58;;;;;;;10.13;1.33;;;;;;;13.41;87.85;101991.69;5012230;28;20123;-34
2022/06/28 02:19:25;;;;;;;9.95;1.90;;;;;;;13.41;87.86;101990.84;5012392;28;20030;-35
2022/06/28 02:21:51;;;;;;;14.40;1.65;;;;;;;13.39;87.73;101997.25;5012934;28;20036;-34
2022/06/28 02:24:16;;;;;;;9.65;1.33;;;;;;;13.38;87.78;101992.88;5011923;28;20385;-35
2022/06/28 02:26:41;;;;;;;11.80;1.40;;;;;;;13.37;87.70;102001.97;5011637;28;20022;-36
2022/06/28 02:29:07;;;;;;;9.07;1.48;;;;;;;13.36;87.85;101994.06;5011796;28;20021;-34
2022/06/28 02:31:33;;;;;;;14.15;1.50;;;;;;;13.32;88.00;101998.97;4993147;28;20057;-36
2022/06/28 02:33:59;;;;;;;15.68;1.70;;;;;;;13.32;88.08;101988.16;5034276;23;20056;-27
2022/06/28 02:41:38;;;;;;;13.70;1.52;;;;;;;13.28;88.12;101992.22;5032747;28;20029;-28
2022/06/28 02:44:04;;;;;;;10.77;1.70;;;;;;;13.25;88.53;101997.94;5031717;28;20044;-28
2022/06/28 02:46:29;;;;;;;15.50;2.03;;;;;;;13.23;88.87;101999.97;5030137;28;20044;-28
2022/06/28 02:48:55;;;;;;;10.88;1.80;;;;;;;13.19;88.93;101998.59;5031251;28;20033;-29
2022/06/28 02:51:20;;;;;;;15.00;2.03;;;;;;;13.19;89.10;101995.91;5019496;28;20034;-29
2022/06/28 02:53:46;;;;;;;21.38;2.15;;;;;;;13.15;89.39;101998.09;5011958;28;20018;-30
2022/06/28 02:56:12;;;;;;;16.23;1.80;;;;;;;13.13;89.75;101997.44;5031185;28;20155;-28
2022/06/28 02:58:37;;;;;;;15.05;1.50;;;;;;;13.10;90.03;102008.59;5030013;28;20643;-28
2022/06/28 03:01:03;;;;;;;12.02;1.60;;;;;;;13.08;90.10;102007.06;5031281;28;20033;-28
2022/06/28 03:03:28;;;;;;;9.20;1.80;;;;;;;13.05;90.47;102002.00;5031161;28;20507;-29
2022/06/28 03:05:53;;;;;;;9.32;1.50;;;;;;;13.01;90.79;101998.81;5031333;28;20481;-29
2022/06/28 03:08:19;;;;;;;14.57;2.33;;;;;;;12.99;90.92;102005.41;5030919;28;20041;-29
2022/06/28 03:10:44;;;;;;;20.88;2.20;;;;;;;12.96;91.19;102010.13;5030959;28;20117;-28
2022/06/28 03:13:10;;;;;;;14.50;1.95;;;;;;;12.95;91.42;102008.44;5029881;28;20206;-29
2022/06/28 03:15:35;;;;;;;16.40;1.90;;;;;;;12.95;91.71;102008.44;5029007;28;20048;-28
2022/06/28 03:18:01;;;;;;;14.57;2.05;;;;;;;12.95;92.04;102011.16;5031164;28;20526;-28
2022/06/28 03:20:28;;;;;;;10.27;1.73;;;;;;;12.95;92.06;102013.84;5029236;28;20033;-29
2022/06/28 03:22:54;;;;;;;14.38;2.47;;;;;;;12.93;92.24;102021.25;5030234;28;20037;-28
2022/06/28 03:25:19;;;;;;;18.63;2.20;;;;;;;12.91;92.44;102023.28;5029324;28;20120;-29
2022/06/28 03:27:46;;;;;;;13.13;2.00;;;;;;;12.90;92.46;102031.53;5029913;28;20445;-29
2022/06/28 03:30:12;;;;;;;15.43;2.00;;;;;;;12.88;92.68;102033.59;5030105;28;20025;-29
2022/06/28 03:32:37;;;;;;;19.40;1.80;;;;;;;12.89;92.78;102030.72;5030730;28;20039;-29
2022/06/28 03:35:03;;;;;;;23.63;2.45;;;;;;;12.90;93.14;102031.53;5011336;28;20370;-29
2022/06/28 03:37:28;;;;;;;14.98;2.42;;;;;;;12.92;93.23;102034.94;4998289;28;20114;-27
2022/06/28 03:39:53;;;;;;;13.80;1.80;;;;;;;12.93;93.08;102042.88;5008795;28;20030;-27
2022/06/28 03:42:19;;;;;;;15.65;2.90;;;;;;;12.91;93.25;102039.50;5011038;28;20057;-28
2022/06/28 03:44:44;;;;;;;10.05;2.00;;;;;;;12.92;93.53;102046.59;5010424;28;20157;-28
2022/06/28 03:47:10;;;;;;;12.95;2.20;;;;;;;12.91;93.69;102044.91;5010739;28;20037;-28
2022/06/28 03:49:35;;;;;;;18.02;2.00;;;;;;;12.91;93.88;102044.91;5009180;28;20034;-28
2022/06/28 03:52:00;;;;;;;15.98;2.13;;;;;;;12.95;94.02;102046.28;5010344;28;20432;-30
2022/06/28 03:54:26;;;;;;;22.15;2.63;;;;;;;12.94;94.04;102049.13;5010123;28;20105;-28
2022/06/28 03:56:52;;;;;;;18.90;2.40;;;;;;;12.93;94.25;102048.28;5010144;28;20064;-28
2022/06/28 03:59:18;;;;;;;20.33;2.60;;;;;;;12.96;94.46;102052.50;5008949;28;20501;-27
2022/06/28 04:01:43;;;;;;;22.15;2.45;;;;;;;12.96;94.55;102055.22;5007868;28;20022;-28
2022/06/28 04:04:08;;;;;;;31.08;3.20;;;;;;;12.99;94.36;102062.13;5007830;28;20087;-27
2022/06/28 04:06:34;;;;;;;21.40;2.78;;;;;;;12.98;94.59;102060.44;5007659;28;20033;-28
2022/06/28 04:09:01;;;;;;;15.65;2.55;;;;;;;13.00;94.78;102056.56;5007547;28;20422;-26
2022/06/28 04:11:26;;;;;;;18.35;2.55;;;;;;;13.04;94.94;102066.03;5007841;28;20057;-29
2022/06/28 04:13:53;;;;;;;16.98;3.35;;;;;;;13.04;95.06;102065.19;5008160;28;20042;-29
2022/06/28 04:16:21;;;;;;;16.48;2.30;;;;;;;13.08;94.98;102061.97;5022652;28;20074;-29
2022/06/28 04:18:46;;;;;;;17.15;3.03;;;;;;;13.13;95.10;102069.56;5007401;28;20535;-28
2022/06/28 04:21:14;;;;;;;27.08;3.15;;;;;;;13.16;95.16;102063.81;5007441;28;20026;-29
2022/06/28 04:23:40;;;;;;;17.08;2.45;;;;;;;13.17;95.03;102065.53;5007628;28;20033;-29
2022/06/28 04:26:05;;;;;;;20.73;3.05;;;;;;;13.19;95.10;102063.47;5006118;28;20536;-29
2022/06/28 04:28:31;;;;;;;28.65;3.20;;;;;;;13.26;95.02;102063.66;5022813;28;20063;-30
2022/06/28 04:30:58;;;;;;;27.77;3.92;;;;;;;13.31;95.16;102067.56;5021592;28;20065;-28
2022/06/28 04:33:24;;;;;;;27.10;4.00;;;;;;;13.37;94.98;102066.88;5007162;28;20033;-28
2022/06/28 04:35:50;;;;;;;30.60;3.30;;;;;;;13.39;94.77;102072.13;5022293;28;20401;-29
2022/06/28 04:38:15;;;;;;;22.20;2.95;;;;;;;13.46;94.71;102069.59;5023152;28;20030;-27
2022/06/28 04:40:41;;;;;;;21.88;2.80;;;;;;;13.49;94.36;102066.53;5006630;28;20546;-31
2022/06/28 04:43:06;;;;;;;29.48;3.45;;;;;;;13.53;94.23;102073.28;5006965;28;20530;-30
2022/06/28 04:45:32;;;;;;;27.35;4.05;;;;;;;13.56;94.28;102070.22;5007318;28;20160;-29
2022/06/28 04:47:58;;;;;;;39.83;5.22;;;;;;;13.63;94.27;102071.25;5003580;28;20029;-29
2022/06/28 04:50:23;;;;;;;21.55;3.97;;;;;;;13.64;94.30;102072.94;5012830;28;20508;-31
2022/06/28 04:52:49;;;;;;;32.08;3.03;;;;;;;13.72;94.04;102070.22;5014088;28;20114;-30
2022/06/28 04:55:15;;;;;;;20.42;4.20;;;;;;;13.70;93.68;102068.72;5011106;28;20413;-30
2022/06/28 04:57:40;;;;;;;32.88;4.10;;;;;;;13.77;93.84;102066.97;5013912;28;20037;-29
2022/06/28 05:00:06;;;;;;;25.35;3.83;;;;;;;13.73;93.56;102077.31;5013088;28;20022;-30
2022/06/28 05:02:31;;;;;;;21.73;4.28;;;;;;;13.71;93.63;102073.94;5012118;28;20420;-30
2022/06/28 05:04:57;;;;;;;33.20;4.70;;;;;;;13.79;93.84;102065.78;5013611;28;20030;-28
2022/06/28 05:07:22;;;;;;;34.97;5.03;;;;;;;13.81;93.58;102069.16;5013604;28;20030;-29
2022/06/28 05:09:48;;;;;;;23.98;4.47;;;;;;;13.81;93.28;102069.16;5013661;28;20029;-29
2022/06/28 05:12:13;;;;;;;22.92;4.05;;;;;;;13.86;93.60;102075.94;5011844;28;20033;-31
2022/06/28 05:14:38;;;;;;;21.55;3.88;;;;;;;13.95;93.46;102074.88;5010255;28;20502;-29
2022/06/28 05:17:04;;;;;;;21.17;3.90;;;;;;;13.97;93.13;102067.44;5011915;28;20427;-31
2022/06/28 05:19:30;;;;;;;26.48;4.28;;;;;;;13.98;92.76;102069.13;5007553;28;20037;-30
2022/06/28 05:21:56;;;;;;;25.48;4.93;;;;;;;14.08;92.66;102075.16;5013094;28;20025;-30
2022/06/28 05:24:22;;;;;;;28.52;4.13;;;;;;;14.10;92.45;102070.44;5012546;28;20382;-28
2022/06/28 05:26:47;;;;;;;18.88;3.65;;;;;;;14.23;92.50;102073.44;5012592;28;20034;-29
2022/06/28 05:29:12;;;;;;;19.05;4.80;;;;;;;14.21;91.70;102070.03;5012970;28;20022;-29
2022/06/28 05:31:38;;;;;;;26.25;4.32;;;;;;;14.28;91.18;102084.56;5011387;28;20500;-29
2022/06/28 05:34:03;;;;;;;33.40;5.50;;;;;;;14.49;91.25;102083.13;5011465;28;20061;-29
2022/06/28 05:36:29;;;;;;;24.75;5.18;;;;;;;14.60;91.14;102073.78;5011680;28;20026;-31
2022/06/28 05:38:55;;;;;;;28.20;4.70;;;;;;;14.48;89.88;102076.88;5012643;28;20405;-31
2022/06/28 05:41:20;;;;;;;27.20;5.10;;;;;;;14.49;89.93;102073.13;5011248;28;20104;-29
2022/06/28 05:43:46;;;;;;;27.80;4.68;;;;;;;14.51;89.92;102070.25;5012037;28;20029;-30
2022/06/28 05:46:11;;;;;;;26.38;4.72;;;;;;;14.47;89.97;102068.91;5011916;28;20440;-28
2022/06/28 05:48:36;;;;;;;28.40;4.82;;;;;;;14.51;90.09;102075.69;5011729;28;20041;-28
2022/06/28 05:51:03;;;;;;;35.30;5.35;;;;;;;14.62;90.30;102071.75;5002803;28;20061;-29
2022/06/28 05:53:28;;;;;;;27.75;4.78;;;;;;;14.66;89.66;102071.19;5006503;28;20037;-30
2022/06/28 05:55:54;;;;;;;24.50;4.47;;;;;;;14.68;88.74;102066.44;5010913;28;20033;-29
2022/06/28 05:58:19;;;;;;;27.77;5.00;;;;;;;14.66;88.51;102068.47;5008111;28;20081;-29
2022/06/28 06:00:44;;;;;;;27.73;4.25;;;;;;;14.72;88.70;102066.94;5012120;28;20497;-29
2022/06/28 06:03:10;;;;;;;31.58;4.78;;;;;;;14.81;88.31;102059.59;5011638;28;20522;-29
2022/06/28 06:05:35;;;;;;;24.58;4.60;;;;;;;14.95;88.08;102064.22;5012440;28;20113;-30
2022/06/28 06:08:00;;;;;;;22.75;4.30;;;;;;;15.09;87.32;102071.59;5008440;28;20037;-29
2022/06/28 06:10:26;;;;;;;26.17;4.72;;;;;;;15.12;86.75;102068.50;4994517;28;20401;-28
2022/06/28 06:12:51;;;;;;;28.40;4.55;;;;;;;15.30;86.93;102070.06;5012629;28;20440;-29
2022/06/28 06:15:16;;;;;;;25.17;4.97;;;;;;;15.32;85.85;102065.28;5009903;28;20029;-29
2022/06/28 06:17:42;;;;;;;26.25;4.57;;;;;;;15.43;85.71;102064.84;5011565;28;20520;-29
2022/06/28 06:20:08;;;;;;;27.38;4.93;;;;;;;15.57;85.60;102071.31;5012108;28;20030;-28
2022/06/28 06:22:34;;;;;;;23.88;4.10;;;;;;;15.83;85.57;102076.34;5011783;28;20074;-28
2022/06/28 06:24:59;;;;;;;29.02;4.32;;;;;;;15.92;83.97;102072.50;5011652;28;20370;-29
2022/06/28 06:27:25;;;;;;;28.95;4.10;;;;;;;16.14;82.60;102067.13;5011491;28;20040;-28
2022/06/28 06:29:50;;;;;;;28.98;4.93;;;;;;;16.23;81.09;102071.44;5010912;28;20045;-27
2022/06/28 06:32:15;;;;;;;24.65;4.35;;;;;;;16.53;80.55;102074.94;5011857;28;20125;-29
2022/06/28 06:34:41;;;;;;;26.48;3.88;;;;;;;16.68;79.21;102081.19;5007336;28;20057;-30
2022/06/28 06:37:06;;;;;;;30.15;4.80;;;;;;;16.98;79.14;102072.97;4991038;28;20034;-28
2022/06/28 06:39:32;;;;;;;23.80;3.40;;;;;;;17.23;77.25;102067.94;5011401;28;20527;-29
2022/06/28 06:41:57;;;;;;;26.02;4.35;;;;;;;17.12;76.75;102071.19;5009903;28;20108;-30
2022/06/28 06:44:22;;;;;;;26.05;4.05;;;;;;;17.14;76.12;102066.41;5011664;28;20088;-26
2022/06/28 06:46:48;;;;;;;18.02;3.33;;;;;;;17.22;76.52;102066.28;5010789;28;20021;-30
2022/06/28 06:49:17;;;;;;;28.25;4.32;;;;;;;17.48;76.33;102081.13;5010945;28;20465;-30
2022/06/28 06:51:44;;;;;;;25.40;3.97;;;;;;;17.44;75.13;102072.50;5011228;28;20022;-29
2022/06/28 06:54:13;;;;;;;22.80;3.80;;;;;;;17.70;76.04;102074.59;5011210;28;20121;-28
2022/06/28 06:56:40;;;;;;;25.83;4.10;;;;;;;17.80;73.18;102073.41;5011308;28;20037;-30
2022/06/28 06:59:07;;;;;;;27.05;3.90;;;;;;;18.23;73.20;102075.97;5011426;28;20080;-29
2022/06/28 07:01:33;;;;;;;23.83;3.65;;;;;;;18.13;71.40;102079.91;5010587;28;20108;-29
2022/06/28 07:03:59;;;;;;;14.90;3.40;;;;;;;18.28;71.12;102078.94;5009521;28;20485;-30
2022/06/28 07:06:24;;;;;;;26.77;4.28;;;;;;;18.49;69.64;102081.53;5009646;28;20030;-29
2022/06/28 07:08:49;;;;;;;20.35;3.25;;;;;;;19.02;69.61;102078.94;5009507;28;20033;-29
2022/06/28 07:11:15;;;;;;;23.45;3.58;;;;;;;19.46;67.58;102073.94;5004477;28;20057;-28
2022/06/28 07:13:40;;;;;;;45.25;4.20;;;;;;;20.53;64.47;102075.31;5008998;28;20460;-29
2022/06/28 07:16:06;;;;;;;23.70;3.25;;;;;;;21.24;61.69;102071.50;5010776;28;20034;-30
2022/06/28 07:18:32;;;;;;;16.98;4.25;;;;;;;21.37;58.96;102070.56;5009436;28;20046;-31
2022/06/28 07:20:57;;;;;;;26.15;4.05;;;;;;;21.37;59.59;102083.44;5001389;28;20485;-29
2022/06/28 07:23:23;;;;;;;23.50;3.70;;;;;;;21.30;59.28;102078.03;5002871;28;20470;-30
2022/06/28 07:25:48;;;;;;;16.13;3.83;;;;;;;20.66;60.81;102082.66;5006400;28;20046;-30
2022/06/28 07:28:13;;;;;;;20.70;3.00;;;;;;;20.96;60.83;102079.34;5009473;28;20026;-30
2022/06/28 07:30:39;;;;;;;22.40;3.47;;;;;;;21.72;57.76;102088.41;5010203;28;20049;-30
2022/06/28 07:33:05;;;;;;;19.20;3.22;;;;;;;20.77;59.37;102086.59;5011154;28;20036;-29
2022/06/28 07:35:31;;;;;;;15.15;2.88;;;;;;;20.15;61.00;102086.22;5009679;28;20401;-29
2022/06/28 07:37:56;;;;;;;20.98;3.38;;;;;;;20.44;61.14;102087.59;5011161;28;20109;-29
2022/06/28 07:40:22;;;;;;;19.17;3.40;;;;;;;20.93;59.17;102093.44;5011059;28;20026;-30
2022/06/28 07:42:47;;;;;;;23.65;3.42;;;;;;;19.85;61.73;102084.00;5011003;28;20030;-30
2022/06/28 07:45:14;;;;;;;23.23;3.15;;;;;;;19.47;62.58;102084.63;5010888;28;20041;-29
2022/06/28 07:47:39;;;;;;;20.50;3.27;;;;;;;19.45;63.60;102084.00;5025938;28;20018;-29
2022/06/28 07:52:49;;;;;;;20.00;3.38;;;;;;;21.20;59.48;102099.56;5011438;28;20080;-29
2022/06/28 07:55:14;;;;;;;23.95;2.92;;;;;;;22.33;55.12;102096.59;5010731;28;20393;-29
2022/06/28 07:57:40;;;;;;;15.15;2.80;;;;;;;22.42;54.09;102096.28;5010817;28;20131;-29
2022/06/28 08:00:06;;;;;;;15.43;2.97;;;;;;;22.98;52.29;102089.63;5010923;28;20045;-29
2022/06/28 08:02:32;;;;;;;20.50;3.70;;;;;;;23.05;51.16;102084.03;5010541;28;20034;-30
2022/06/28 08:04:57;;;;;;;18.38;2.88;;;;;;;23.26;49.51;102090.88;5010444;28;20036;-29
2022/06/28 08:07:22;;;;;;;17.27;2.75;;;;;;;23.84;47.97;102082.69;5010739;28;20567;-28
2022/06/28 08:09:48;;;;;;;16.05;2.50;;;;;;;24.56;44.34;102089.69;5010516;28;20338;-29
2022/06/28 08:12:14;;;;;;;10.55;1.85;;;;;;;24.00;43.89;102094.03;5010668;28;20088;-29
2022/06/28 08:14:39;;;;;;;15.20;2.42;;;;;;;23.09;45.31;102090.72;5010794;28;20342;-30
2022/06/28 08:17:05;;;;;;;15.07;2.78;;;;;;;22.30;48.31;102086.09;5011057;28;20471;-29
2022/06/28 08:19:31;;;;;;;16.95;2.20;;;;;;;22.54;48.58;102078.81;5010348;28;20448;-29
2022/06/28 08:21:57;;;;;;;11.07;2.10;;;;;;;21.99;48.31;102078.84;5010263;28;20358;-29
2022/06/28 08:24:22;;;;;;;12.55;2.40;;;;;;;22.80;45.64;102082.25;5010662;28;20033;-29
2022/06/28 08:26:48;;;;;;;8.75;2.33;;;;;;;23.61;46.01;102077.16;5010374;28;20083;-30
2022/06/28 08:29:15;;;;;;;12.38;1.98;;;;;;;23.47;45.55;102081.22;5010383;28;20048;-29
2022/06/28 08:31:41;;;;;;;10.88;2.08;;;;;;;23.62;45.21;102076.94;5025644;28;20026;-29
2022/06/28 08:34:06;;;;;;;13.52;2.40;;;;;;;24.79;44.19;102079.69;5009056;28;20080;-28
2022/06/28 08:36:32;;;;;;;15.48;2.38;;;;;;;23.78;42.51;102080.91;5010602;28;20033;-29
2022/06/28 08:38:58;;;;;;;13.57;2.58;;;;;;;23.53;44.50;102083.00;5010392;28;20034;-29
2022/06/28 08:41:26;;;;;;;15.02;2.97;;;;;;;23.60;44.43;102070.00;5010197;28;20028;-28
2022/06/28 08:43:53;;;;;;;13.98;2.00;;;;;;;24.87;43.14;102082.03;5025602;28;20044;-29
2022/06/28 08:46:18;;;;;;;10.17;2.10;;;;;;;23.97;42.29;102073.34;5025395;28;20034;-29
2022/06/28 08:48:48;;;;;;;13.65;2.20;;;;;;;23.75;43.86;102064.88;5025295;28;20034;-30
2022/06/28 08:51:14;;;;;;;11.82;2.63;;;;;;;23.59;45.39;102057.31;5010606;28;20088;-30
2022/06/28 08:53:41;;;;;;;10.70;2.28;;;;;;;24.48;42.51;102062.56;5010420;28;20084;-30
2022/06/28 08:56:09;;;;;;;9.00;2.15;;;;;;;24.85;41.99;102053.91;5009026;28;20041;-30
2022/06/28 08:58:35;;;;;;;10.27;2.08;;;;;;;24.24;41.61;102051.63;5010343;28;20030;-30
2022/06/28 09:01:01;;;;;;;13.45;2.30;;;;;;;24.15;42.29;102049.50;5010227;28;20026;-28
2022/06/28 09:03:26;;;;;;;11.70;2.42;;;;;;;24.70;42.69;102048.97;5008970;28;20121;-30
2022/06/28 09:05:52;;;;;;;14.07;2.45;;;;;;;25.59;41.18;102049.09;5008704;28;20117;-31
2022/06/28 09:08:17;;;;;;;9.82;2.15;;;;;;;26.30;37.32;102059.38;5010090;28;20174;-28
2022/06/28 09:10:45;;;;;;;13.48;2.28;;;;;;;26.42;37.20;102056.50;5010109;28;20101;-28
2022/06/28 09:13:12;;;;;;;8.30;1.77;;;;;;;24.88;37.24;102057.00;5010116;28;20024;-28
2022/06/28 09:15:56;;;;;;;;;;;;;;;24.83;36.36;102056.06;5009492;28;20495;-30
2022/06/28 09:18:46;;;;;;;7.22;1.50;;;;;;;24.31;39.81;102060.56;5010369;28;19920;-29
2022/06/28 09:21:15;;;;;;;12.77;2.30;;;;;;;24.75;40.29;102058.16;5009845;28;20108;-29
2022/06/28 09:23:52;;;;;;;11.52;1.95;;;;;;;25.27;38.53;102059.03;5008688;28;20022;-29
2022/06/28 09:26:20;;;;;;;21.20;2.28;;;;;;;25.12;39.25;102057.69;5009644;28;20040;-30
2022/06/28 09:28:52;;;;;;;19.02;2.13;;;;;;;24.85;39.42;102057.47;5010007;28;20044;-29
2022/06/28 09:31:26;;;;;;;12.20;2.10;;;;;;;24.07;39.44;102045.22;5009983;28;20029;-29
2022/06/28 09:34:00;;;;;;;10.55;2.10;;;;;;;25.52;39.20;102050.34;5011039;28;20125;-30
2022/06/28 09:36:27;;;;;;;10.45;2.08;;;;;;;24.58;37.76;102046.25;5013262;28;20029;-29
2022/06/28 09:38:56;;;;;;;14.93;2.10;;;;;;;24.35;39.47;102049.91;5013715;28;20041;-28
2022/06/28 09:41:30;;;;;;;14.02;2.30;;;;;;;24.17;40.75;102039.94;5013296;28;20028;-29
2022/06/28 09:44:00;;;;;;;11.18;2.15;;;;;;;24.23;41.32;102049.13;5013427;28;20335;-30
2022/06/28 09:46:28;;;;;;;12.10;2.03;;;;;;;23.85;40.54;102045.84;5013319;28;20025;-30
2022/06/28 09:48:58;;;;;;;8.73;2.08;;;;;;;25.53;38.74;102039.03;5013441;28;20175;-29
2022/06/28 09:51:25;;;;;;;18.63;2.05;;;;;;;25.97;36.74;102041.91;5013225;28;20048;-29
2022/06/28 09:54:03;;;;;;;6.93;1.97;;;;;;;26.42;36.07;102043.53;5011801;28;20026;-31
2022/06/28 09:56:31;;;;;;;10.10;2.10;;;;;;;26.83;36.35;102038.47;5012888;28;20269;-29
2022/06/28 09:58:57;;;;;;;16.75;2.53;;;;;;;26.80;36.09;102041.72;5027915;28;20037;-29
2022/06/28 10:01:23;;;;;;;12.88;2.25;;;;;;;27.05;36.26;102043.06;5012791;28;20026;-31
2022/06/28 10:03:49;;;;;;;6.20;1.98;;;;;;;26.18;37.29;102042.16;5012937;28;20026;-30
2022/06/28 10:06:16;;;;;;;11.07;1.90;;;;;;;25.49;37.92;102043.41;5011148;28;20080;-29
2022/06/28 10:08:42;;;;;;;;;;;;;;;25.11;36.43;102044.16;5013144;28;20439;-29
2022/06/28 10:11:07;;;;;;;10.80;2.00;;;;;;;25.21;36.14;102033.31;5011384;28;19963;-29
2022/06/28 10:16:29;;;;;;;7.82;1.67;;;;;;;25.92;34.57;102028.03;5025509;28;20041;-29
2022/06/28 10:18:55;;;;;;;8.52;1.77;;;;;;;25.70;33.80;102040.94;5012651;28;20101;-30
2022/06/28 10:21:46;;;;;;;8.10;2.13;;;;;;;25.41;35.49;102027.31;5011057;28;20176;-30
2022/06/28 10:24:13;;;;;;;8.07;1.90;;;;;;;24.28;35.75;102029.97;5005690;28;20042;-29
2022/06/28 10:26:42;;;;;;;15.10;2.22;;;;;;;24.59;36.14;102020.38;5012493;28;20480;-30
2022/06/28 10:29:11;;;;;;;8.25;1.83;;;;;;;25.19;36.39;102014.28;5012179;28;20128;-29
2022/06/28 10:31:38;;;;;;;9.07;2.10;;;;;;;24.62;36.03;102014.41;5012254;28;20038;-30
2022/06/28 10:34:10;;;;;;;8.73;2.10;;;;;;;24.96;35.13;102011.66;5011918;28;20329;-29
2022/06/28 10:36:46;;;;;;;10.57;1.63;;;;;;;25.88;33.38;102010.31;5011977;28;20026;-30
2022/06/28 10:39:15;;;;;;;11.05;1.70;;;;;;;25.50;32.44;102014.75;5012227;28;20036;-30
2022/06/28 10:41:49;;;;;;;6.65;1.50;;;;;;;26.10;33.37;102009.50;5012353;28;20026;-33
2022/06/28 10:44:18;;;;;;;8.95;1.73;;;;;;;26.97;32.63;102005.69;5012084;28;20496;-28
2022/06/28 10:47:04;;;;;;;10.77;1.77;;;;;;;26.42;32.50;101998.53;5011762;28;20033;-29
2022/06/28 10:49:44;;;;;;;9.20;1.98;;;;;;;25.53;33.82;102008.72;5000969;28;20325;-29
2022/06/28 10:52:14;;;;;;;9.68;1.63;;;;;;;26.21;32.75;102008.53;5011622;28;20381;-29
2022/06/28 10:55:04;;;;;;;6.80;2.05;;;;;;;25.44;32.94;102004.75;5012005;28;20038;-29
2022/06/28 10:57:38;;;;;;;13.60;1.77;;;;;;;24.44;35.75;102012.69;5011539;28;20477;-30
2022/06/28 11:00:12;;;;;;;7.72;1.63;;;;;;;23.93;37.20;102000.66;5026904;28;20478;-28
2022/06/28 11:02:51;;;;;;;10.43;1.50;;;;;;;24.80;34.88;101984.97;5026285;28;20061;-29
2022/06/28 11:05:18;;;;;;;9.98;1.98;;;;;;;24.96;37.20;101990.50;5011697;28;20413;-28
2022/06/28 11:07:56;;;;;;;7.40;1.58;;;;;;;25.44;34.89;101988.22;5026384;28;20381;-29
2022/06/28 11:10:21;;;;;;;7.75;1.83;;;;;;;26.10;33.07;101984.66;5010361;28;20057;-30
2022/06/28 11:12:47;;;;;;;7.30;1.83;;;;;;;26.35;32.26;101984.94;5011628;28;20049;-30
2022/06/28 11:15:35;;;;;;;8.70;1.42;;;;;;;25.86;33.12;101987.69;5011645;28;20448;-29
2022/06/28 11:18:02;;;;;;;6.35;1.08;;;;;;;25.59;33.89;101984.81;5011930;28;20026;-30
2022/06/28 11:20:29;;;;;;;;;;;;;;;25.43;33.16;101980.19;5011935;28;20040;-29
2022/06/28 11:22:55;;;;;;;9.68;1.58;;;;;;;26.58;33.00;101977.47;5010022;28;19916;-31
2022/06/28 11:25:24;;;;;;;7.85;1.80;;;;;;;26.85;31.69;101969.13;5011412;28;20026;-30
2022/06/28 11:27:57;;;;;;;6.82;1.60;;;;;;;25.13;33.64;101976.69;5011270;28;20028;-29
2022/06/28 11:30:27;;;;;;;6.75;1.45;;;;;;;25.88;32.40;101974.47;4993435;28;20220;-29